Cairns AAF (Fort Rucker) Air Field
KOZR : now visible

Airfield :











YOU CAN JOIN US ON...

 
LOGIN :

Register | Disclaimer

   EN    FR    IT 

 









Legend :    VFR   Marginal VFR   IFR   Intensive IFR   Very Intensive IFR
Visi :
Ceiling :
>= 8 km
>= 3000ft
5 to 8 km
1000 to 3000 ft
1500m to 5 km
500 to 1000 ft
800 to 1500m
200 to 500 ft
< 800m
< 200 ft
Symbols :   Thunderstorms  Fog  Heavy snow  Heavy precipitations  Wind > 20 kt






- Airport Elevation : 301 ft


KOZR - Cairns AAF (Fort Rucker) Air Field

CURRENT METAR :
  • 141056Z AUTO 05003KT 10SM CLR 12/11 A3004 RMK AO2 SLP173 T01170108

EXPIRED METARs :
  • 140956Z AUTO 00000KT 10SM CLR 12/11 A3004 RMK AO2 SLP173 T01210110
  • 140856Z AUTO 00000KT 10SM CLR 13/11 A3003 RMK AO2 SLP169 T01280112 57014
  • 140831Z AUTO 00000KT 10SM CLR 13/11 A3003 RMK AO2 SLP169 57015

TAF TAF KOZR
Valid from the 14 at 08:00 until the 15 at 14:00 UTC


140800Z 1408/1514 VRB05KT 9999 FEW120 SCT220 QNH3004INS
BECMG 1415/1416 16007KT 9999 FEW030 SCT080 QNH3003INS
BECMG 1419/1420 20009KT 9999 FEW040 BKN080 BKN200 QNH3000INS
TEMPO 1421/1423 VRB12G20KT 4800 SHRA BKN040 OVC080
BECMG 1504/1505 22005KT 9999 BKN025 OVC050 QNH2994INS
BECMG 1507/1508 22005KT 9999 BKN007 OVC015 QNH2990INS
BECMG 1512/1513 33010KT 4800 SHRA VCTS BKN007 OVC015CB QNH2988INS TX30/1419Z TN12/1412Z
KZJX FIR / North America



MET'MAP, your aeronautical weather chart ! - Copyright ORBIFLY December 2007 - Disclaimer

ORBIFLY MET'MAP TEAM :

Programming & Development : Alexandra Zaïnal
Concept & original design : Baudouin d'Aumeries
Assistance for programming : Marc-Olivier Méhu
Technical & hardware support : Manuel Goepfert

Contact : metmap@orbifly.com




SOURCES & CREDITS :

   NOAA       Earth
Advisory